sensor_id;sensor_type;location;lat;lon;timestamp;temperature;humidity
22787;DHT22;63134;52.020;4.714;2023-03-04T00:01:15;7.80;74.60
22787;DHT22;63134;52.020;4.714;2023-03-04T00:04:00;7.80;74.40
22787;DHT22;63134;52.020;4.714;2023-03-04T00:06:48;7.80;74.40
22787;DHT22;63134;52.020;4.714;2023-03-04T00:09:34;7.80;74.40
22787;DHT22;63134;52.020;4.714;2023-03-04T00:12:19;7.80;74.50
22787;DHT22;63134;52.020;4.714;2023-03-04T00:15:05;7.80;74.60
22787;DHT22;63134;52.020;4.714;2023-03-04T00:17:51;7.80;74.50
22787;DHT22;63134;52.020;4.714;2023-03-04T00:20:39;7.80;74.50
22787;DHT22;63134;52.020;4.714;2023-03-04T00:23:25;7.80;74.60
22787;DHT22;63134;52.020;4.714;2023-03-04T00:26:10;7.80;74.80
22787;DHT22;63134;52.020;4.714;2023-03-04T00:28:59;7.80;74.90
22787;DHT22;63134;52.020;4.714;2023-03-04T00:31:44;7.80;75.70
22787;DHT22;63134;52.020;4.714;2023-03-04T00:34:30;7.80;75.10
22787;DHT22;63134;52.020;4.714;2023-03-04T00:37:20;7.80;75.00
22787;DHT22;63134;52.020;4.714;2023-03-04T00:40:08;7.80;75.20
22787;DHT22;63134;52.020;4.714;2023-03-04T00:43:02;7.80;75.10
22787;DHT22;63134;52.020;4.714;2023-03-04T00:45:48;7.80;75.20
22787;DHT22;63134;52.020;4.714;2023-03-04T00:48:33;7.80;75.20
22787;DHT22;63134;52.020;4.714;2023-03-04T00:51:19;7.80;75.20
22787;DHT22;63134;52.020;4.714;2023-03-04T00:54:06;7.80;75.30
22787;DHT22;63134;52.020;4.714;2023-03-04T00:56:53;7.80;75.40
22787;DHT22;63134;52.020;4.714;2023-03-04T00:59:39;7.80;75.40
22787;DHT22;63134;52.020;4.714;2023-03-04T01:02:25;7.80;75.40
22787;DHT22;63134;52.020;4.714;2023-03-04T01:05:10;7.80;75.40
22787;DHT22;63134;52.020;4.714;2023-03-04T01:07:55;7.90;75.50
22787;DHT22;63134;52.020;4.714;2023-03-04T01:10:41;7.80;75.40
22787;DHT22;63134;52.020;4.714;2023-03-04T01:13:26;7.90;75.50
22787;DHT22;63134;52.020;4.714;2023-03-04T01:16:12;7.80;75.60
22787;DHT22;63134;52.020;4.714;2023-03-04T01:18:57;7.80;75.70
22787;DHT22;63134;52.020;4.714;2023-03-04T01:21:43;7.80;75.80
22787;DHT22;63134;52.020;4.714;2023-03-04T01:24:29;7.80;75.90
22787;DHT22;63134;52.020;4.714;2023-03-04T01:27:15;7.80;76.00
22787;DHT22;63134;52.020;4.714;2023-03-04T01:30:02;7.80;76.00
22787;DHT22;63134;52.020;4.714;2023-03-04T01:32:50;7.80;76.10
22787;DHT22;63134;52.020;4.714;2023-03-04T01:35:35;7.80;75.80
22787;DHT22;63134;52.020;4.714;2023-03-04T01:38:23;7.80;75.60
22787;DHT22;63134;52.020;4.714;2023-03-04T01:41:11;7.80;75.70
22787;DHT22;63134;52.020;4.714;2023-03-04T01:44:00;7.80;75.50
22787;DHT22;63134;52.020;4.714;2023-03-04T01:46:50;7.80;75.40
22787;DHT22;63134;52.020;4.714;2023-03-04T01:49:36;7.80;75.30
22787;DHT22;63134;52.020;4.714;2023-03-04T01:52:24;7.80;75.30
22787;DHT22;63134;52.020;4.714;2023-03-04T01:55:17;7.80;75.40
22787;DHT22;63134;52.020;4.714;2023-03-04T01:58:04;7.80;75.20
22787;DHT22;63134;52.020;4.714;2023-03-04T02:00:58;7.80;75.20
22787;DHT22;63134;52.020;4.714;2023-03-04T02:03:43;7.80;75.20
22787;DHT22;63134;52.020;4.714;2023-03-04T02:06:29;7.80;75.20
22787;DHT22;63134;52.020;4.714;2023-03-04T02:09:16;7.80;75.40
22787;DHT22;63134;52.020;4.714;2023-03-04T02:12:02;7.80;75.40
22787;DHT22;63134;52.020;4.714;2023-03-04T02:14:48;7.80;75.40
22787;DHT22;63134;52.020;4.714;2023-03-04T02:17:34;7.80;75.20
22787;DHT22;63134;52.020;4.714;2023-03-04T02:23:16;7.80;75.40
22787;DHT22;63134;52.020;4.714;2023-03-04T02:28:57;7.80;75.30
22787;DHT22;63134;52.020;4.714;2023-03-04T02:31:45;7.80;75.40
22787;DHT22;63134;52.020;4.714;2023-03-04T02:34:33;7.80;75.40
22787;DHT22;63134;52.020;4.714;2023-03-04T02:37:19;7.80;75.50
22787;DHT22;63134;52.020;4.714;2023-03-04T02:40:20;7.80;75.70
22787;DHT22;63134;52.020;4.714;2023-03-04T02:43:11;7.80;75.80
22787;DHT22;63134;52.020;4.714;2023-03-04T02:45:57;7.90;75.60
22787;DHT22;63134;52.020;4.714;2023-03-04T02:48:43;7.90;75.50
22787;DHT22;63134;52.020;4.714;2023-03-04T02:51:32;7.90;75.50
22787;DHT22;63134;52.020;4.714;2023-03-04T02:54:20;7.90;75.50
22787;DHT22;63134;52.020;4.714;2023-03-04T02:57:08;7.90;75.50
22787;DHT22;63134;52.020;4.714;2023-03-04T02:59:56;7.90;75.50
22787;DHT22;63134;52.020;4.714;2023-03-04T03:02:44;7.90;75.50
22787;DHT22;63134;52.020;4.714;2023-03-04T03:05:32;7.90;75.50
22787;DHT22;63134;52.020;4.714;2023-03-04T03:08:18;7.90;75.50
22787;DHT22;63134;52.020;4.714;2023-03-04T03:11:03;7.90;75.50
22787;DHT22;63134;52.020;4.714;2023-03-04T03:13:50;7.80;75.50
22787;DHT22;63134;52.020;4.714;2023-03-04T03:16:36;7.90;75.60
22787;DHT22;63134;52.020;4.714;2023-03-04T03:19:22;7.80;75.60
22787;DHT22;63134;52.020;4.714;2023-03-04T03:22:11;7.80;75.60
22787;DHT22;63134;52.020;4.714;2023-03-04T03:24:57;7.80;75.80
22787;DHT22;63134;52.020;4.714;2023-03-04T03:27:43;7.80;75.80
22787;DHT22;63134;52.020;4.714;2023-03-04T03:30:33;7.80;75.90
22787;DHT22;63134;52.020;4.714;2023-03-04T03:33:24;7.80;75.90
22787;DHT22;63134;52.020;4.714;2023-03-04T03:36:09;7.80;76.00
22787;DHT22;63134;52.020;4.714;2023-03-04T03:38:56;7.80;76.00
22787;DHT22;63134;52.020;4.714;2023-03-04T03:41:44;7.80;76.20
22787;DHT22;63134;52.020;4.714;2023-03-04T03:44:30;7.80;76.30
22787;DHT22;63134;52.020;4.714;2023-03-04T03:47:15;7.80;76.20
22787;DHT22;63134;52.020;4.714;2023-03-04T03:50:01;8.00;76.30
22787;DHT22;63134;52.020;4.714;2023-03-04T03:52:46;7.90;76.10
22787;DHT22;63134;52.020;4.714;2023-03-04T03:55:32;7.90;76.10
22787;DHT22;63134;52.020;4.714;2023-03-04T03:58:17;7.90;76.00
22787;DHT22;63134;52.020;4.714;2023-03-04T04:01:03;7.90;75.90
22787;DHT22;63134;52.020;4.714;2023-03-04T04:03:51;7.90;75.90
22787;DHT22;63134;52.020;4.714;2023-03-04T04:06:37;7.80;75.80
22787;DHT22;63134;52.020;4.714;2023-03-04T04:09:24;7.80;75.90
22787;DHT22;63134;52.020;4.714;2023-03-04T04:12:11;7.80;75.90
22787;DHT22;63134;52.020;4.714;2023-03-04T04:14:59;7.80;76.00
22787;DHT22;63134;52.020;4.714;2023-03-04T04:17:45;7.80;76.00
22787;DHT22;63134;52.020;4.714;2023-03-04T04:20:30;7.70;76.00
22787;DHT22;63134;52.020;4.714;2023-03-04T04:23:15;7.70;76.20
22787;DHT22;63134;52.020;4.714;2023-03-04T04:26:02;7.70;76.20
22787;DHT22;63134;52.020;4.714;2023-03-04T04:28:47;7.70;76.20
22787;DHT22;63134;52.020;4.714;2023-03-04T04:31:33;7.70;76.20
22787;DHT22;63134;52.020;4.714;2023-03-04T04:34:19;7.70;76.30
22787;DHT22;63134;52.020;4.714;2023-03-04T04:37:05;7.80;76.40
22787;DHT22;63134;52.020;4.714;2023-03-04T04:39:50;7.80;76.10
22787;DHT22;63134;52.020;4.714;2023-03-04T04:42:37;7.80;76.10
22787;DHT22;63134;52.020;4.714;2023-03-04T04:45:25;7.80;76.00
22787;DHT22;63134;52.020;4.714;2023-03-04T04:48:12;7.70;75.90
22787;DHT22;63134;52.020;4.714;2023-03-04T04:51:00;7.70;76.00
22787;DHT22;63134;52.020;4.714;2023-03-04T04:53:47;7.70;76.10
22787;DHT22;63134;52.020;4.714;2023-03-04T04:56:32;7.70;75.90
22787;DHT22;63134;52.020;4.714;2023-03-04T04:59:18;7.70;76.10
22787;DHT22;63134;52.020;4.714;2023-03-04T05:02:03;7.70;76.00
22787;DHT22;63134;52.020;4.714;2023-03-04T05:04:49;7.70;76.10
22787;DHT22;63134;52.020;4.714;2023-03-04T05:07:34;7.70;76.00
22787;DHT22;63134;52.020;4.714;2023-03-04T05:10:20;7.70;75.90
22787;DHT22;63134;52.020;4.714;2023-03-04T05:13:05;7.70;76.10
22787;DHT22;63134;52.020;4.714;2023-03-04T05:15:52;7.70;76.00
22787;DHT22;63134;52.020;4.714;2023-03-04T05:18:41;7.80;75.90
22787;DHT22;63134;52.020;4.714;2023-03-04T05:21:26;7.70;75.70
22787;DHT22;63134;52.020;4.714;2023-03-04T05:24:14;7.70;75.80
22787;DHT22;63134;52.020;4.714;2023-03-04T05:27:00;7.70;75.90
22787;DHT22;63134;52.020;4.714;2023-03-04T05:29:46;7.70;76.00
22787;DHT22;63134;52.020;4.714;2023-03-04T05:32:31;7.70;76.00
22787;DHT22;63134;52.020;4.714;2023-03-04T05:35:20;7.80;76.20
22787;DHT22;63134;52.020;4.714;2023-03-04T05:38:07;7.80;76.10
22787;DHT22;63134;52.020;4.714;2023-03-04T05:40:58;7.90;76.10
22787;DHT22;63134;52.020;4.714;2023-03-04T05:43:44;7.90;76.00
22787;DHT22;63134;52.020;4.714;2023-03-04T05:46:29;7.90;76.00
22787;DHT22;63134;52.020;4.714;2023-03-04T05:49:18;7.90;76.10
22787;DHT22;63134;52.020;4.714;2023-03-04T05:52:04;7.90;76.00
22787;DHT22;63134;52.020;4.714;2023-03-04T05:54:53;7.90;76.00
22787;DHT22;63134;52.020;4.714;2023-03-04T05:57:39;7.90;76.20
22787;DHT22;63134;52.020;4.714;2023-03-04T06:00:25;7.90;76.30
22787;DHT22;63134;52.020;4.714;2023-03-04T06:03:16;7.90;76.30
22787;DHT22;63134;52.020;4.714;2023-03-04T06:06:02;7.90;76.40
22787;DHT22;63134;52.020;4.714;2023-03-04T06:08:47;7.90;76.50
22787;DHT22;63134;52.020;4.714;2023-03-04T06:11:33;7.90;76.60
22787;DHT22;63134;52.020;4.714;2023-03-04T06:14:20;7.90;76.70
22787;DHT22;63134;52.020;4.714;2023-03-04T06:17:06;7.90;76.90
22787;DHT22;63134;52.020;4.714;2023-03-04T06:19:51;7.90;77.00
22787;DHT22;63134;52.020;4.714;2023-03-04T06:22:37;7.90;77.10
22787;DHT22;63134;52.020;4.714;2023-03-04T06:25:26;7.80;77.30
22787;DHT22;63134;52.020;4.714;2023-03-04T06:28:11;7.80;77.80
22787;DHT22;63134;52.020;4.714;2023-03-04T06:31:03;7.80;78.20
22787;DHT22;63134;52.020;4.714;2023-03-04T06:33:49;7.80;78.40
22787;DHT22;63134;52.020;4.714;2023-03-04T06:36:34;7.80;78.40
22787;DHT22;63134;52.020;4.714;2023-03-04T06:39:20;7.80;78.50
22787;DHT22;63134;52.020;4.714;2023-03-04T06:42:05;7.80;78.50
22787;DHT22;63134;52.020;4.714;2023-03-04T06:44:51;7.80;78.60
22787;DHT22;63134;52.020;4.714;2023-03-04T06:47:36;7.80;78.60
22787;DHT22;63134;52.020;4.714;2023-03-04T06:50:23;7.90;78.60
22787;DHT22;63134;52.020;4.714;2023-03-04T06:53:08;7.80;78.50
22787;DHT22;63134;52.020;4.714;2023-03-04T06:55:54;7.90;78.70
22787;DHT22;63134;52.020;4.714;2023-03-04T06:58:39;7.90;78.70
22787;DHT22;63134;52.020;4.714;2023-03-04T07:01:32;7.90;78.80
22787;DHT22;63134;52.020;4.714;2023-03-04T07:04:18;7.90;78.90
22787;DHT22;63134;52.020;4.714;2023-03-04T07:07:04;8.00;78.90
22787;DHT22;63134;52.020;4.714;2023-03-04T07:09:49;8.00;78.80
22787;DHT22;63134;52.020;4.714;2023-03-04T07:12:36;8.10;78.80
22787;DHT22;63134;52.020;4.714;2023-03-04T07:15:21;8.10;78.60
22787;DHT22;63134;52.020;4.714;2023-03-04T07:18:07;8.20;78.60
22787;DHT22;63134;52.020;4.714;2023-03-04T07:20:58;8.20;78.40
22787;DHT22;63134;52.020;4.714;2023-03-04T07:23:44;8.20;78.10
22787;DHT22;63134;52.020;4.714;2023-03-04T07:26:29;8.20;78.20
22787;DHT22;63134;52.020;4.714;2023-03-04T07:29:15;8.30;78.30
22787;DHT22;63134;52.020;4.714;2023-03-04T07:32:00;8.40;78.10
22787;DHT22;63134;52.020;4.714;2023-03-04T07:34:46;8.40;77.90
22787;DHT22;63134;52.020;4.714;2023-03-04T07:37:32;8.30;78.00
22787;DHT22;63134;52.020;4.714;2023-03-04T07:40:21;8.30;78.40
22787;DHT22;63134;52.020;4.714;2023-03-04T07:43:11;8.30;79.00
22787;DHT22;63134;52.020;4.714;2023-03-04T07:45:58;8.30;79.20
22787;DHT22;63134;52.020;4.714;2023-03-04T07:48:44;8.30;79.40
22787;DHT22;63134;52.020;4.714;2023-03-04T07:51:30;8.30;79.70
22787;DHT22;63134;52.020;4.714;2023-03-04T07:54:15;8.40;80.20
22787;DHT22;63134;52.020;4.714;2023-03-04T07:57:01;8.40;80.50
22787;DHT22;63134;52.020;4.714;2023-03-04T07:59:46;8.40;80.90
22787;DHT22;63134;52.020;4.714;2023-03-04T08:02:32;8.40;81.10
22787;DHT22;63134;52.020;4.714;2023-03-04T08:05:17;8.50;81.10
22787;DHT22;63134;52.020;4.714;2023-03-04T08:08:03;8.60;81.40
22787;DHT22;63134;52.020;4.714;2023-03-04T08:10:48;8.70;81.60
22787;DHT22;63134;52.020;4.714;2023-03-04T08:13:36;8.80;81.50
22787;DHT22;63134;52.020;4.714;2023-03-04T08:16:22;8.90;81.50
22787;DHT22;63134;52.020;4.714;2023-03-04T08:19:08;9.00;81.20
22787;DHT22;63134;52.020;4.714;2023-03-04T08:21:55;9.10;80.90
22787;DHT22;63134;52.020;4.714;2023-03-04T08:24:40;9.20;80.80
22787;DHT22;63134;52.020;4.714;2023-03-04T08:27:26;9.30;80.50
22787;DHT22;63134;52.020;4.714;2023-03-04T08:30:15;9.40;80.10
22787;DHT22;63134;52.020;4.714;2023-03-04T08:33:02;9.50;80.30
22787;DHT22;63134;52.020;4.714;2023-03-04T08:35:47;9.60;80.30
22787;DHT22;63134;52.020;4.714;2023-03-04T08:38:33;9.70;79.80
22787;DHT22;63134;52.020;4.714;2023-03-04T08:41:19;9.80;79.70
22787;DHT22;63134;52.020;4.714;2023-03-04T08:44:05;9.90;79.40
22787;DHT22;63134;52.020;4.714;2023-03-04T08:46:55;9.90;79.10
22787;DHT22;63134;52.020;4.714;2023-03-04T08:49:40;10.00;79.10
22787;DHT22;63134;52.020;4.714;2023-03-04T08:52:28;10.00;78.90
22787;DHT22;63134;52.020;4.714;2023-03-04T08:55:13;10.10;79.20
22787;DHT22;63134;52.020;4.714;2023-03-04T08:57:59;10.20;79.00
22787;DHT22;63134;52.020;4.714;2023-03-04T09:00:45;10.40;79.10
22787;DHT22;63134;52.020;4.714;2023-03-04T09:03:35;10.50;78.70
22787;DHT22;63134;52.020;4.714;2023-03-04T09:06:21;10.50;77.70
22787;DHT22;63134;52.020;4.714;2023-03-04T09:09:07;10.40;77.40
22787;DHT22;63134;52.020;4.714;2023-03-04T09:11:52;10.30;77.90
22787;DHT22;63134;52.020;4.714;2023-03-04T09:14:39;10.10;77.90
22787;DHT22;63134;52.020;4.714;2023-03-04T09:17:27;9.90;78.80
22787;DHT22;63134;52.020;4.714;2023-03-04T09:20:14;9.90;80.00
22787;DHT22;63134;52.020;4.714;2023-03-04T09:23:00;10.00;80.70
22787;DHT22;63134;52.020;4.714;2023-03-04T09:25:46;10.10;81.00
22787;DHT22;63134;52.020;4.714;2023-03-04T09:28:36;10.40;81.60
22787;DHT22;63134;52.020;4.714;2023-03-04T09:31:23;10.60;81.80
22787;DHT22;63134;52.020;4.714;2023-03-04T09:34:09;10.80;81.10
22787;DHT22;63134;52.020;4.714;2023-03-04T09:36:55;10.80;79.90
22787;DHT22;63134;52.020;4.714;2023-03-04T09:39:40;10.70;80.00
22787;DHT22;63134;52.020;4.714;2023-03-04T09:42:35;10.70;79.70
22787;DHT22;63134;52.020;4.714;2023-03-04T09:45:26;10.70;80.10
22787;DHT22;63134;52.020;4.714;2023-03-04T09:48:16;10.50;79.90
22787;DHT22;63134;52.020;4.714;2023-03-04T09:57:56;10.40;81.40
22787;DHT22;63134;52.020;4.714;2023-03-04T10:04:12;10.80;81.60
22787;DHT22;63134;52.020;4.714;2023-03-04T10:07:00;10.90;82.20
22787;DHT22;63134;52.020;4.714;2023-03-04T10:09:50;10.90;81.40
22787;DHT22;63134;52.020;4.714;2023-03-04T10:12:41;11.00;82.20
22787;DHT22;63134;52.020;4.714;2023-03-04T10:15:32;11.20;82.00
22787;DHT22;63134;52.020;4.714;2023-03-04T10:18:38;11.20;81.70
22787;DHT22;63134;52.020;4.714;2023-03-04T10:21:33;11.30;81.20
22787;DHT22;63134;52.020;4.714;2023-03-04T10:24:21;11.50;82.30
22787;DHT22;63134;52.020;4.714;2023-03-04T10:27:11;11.80;80.80
22787;DHT22;63134;52.020;4.714;2023-03-04T10:29:59;11.80;79.90
22787;DHT22;63134;52.020;4.714;2023-03-04T10:32:45;11.70;79.20
22787;DHT22;63134;52.020;4.714;2023-03-04T10:35:34;11.80;79.50
22787;DHT22;63134;52.020;4.714;2023-03-04T10:38:21;11.70;77.60
22787;DHT22;63134;52.020;4.714;2023-03-04T10:41:13;11.70;78.60
22787;DHT22;63134;52.020;4.714;2023-03-04T10:46:54;12.20;78.60
22787;DHT22;63134;52.020;4.714;2023-03-04T10:49:51;12.20;76.90
22787;DHT22;63134;52.020;4.714;2023-03-04T10:52:45;12.10;75.30
22787;DHT22;63134;52.020;4.714;2023-03-04T10:55:42;12.00;76.30
22787;DHT22;63134;52.020;4.714;2023-03-04T10:58:29;12.10;76.40
22787;DHT22;63134;52.020;4.714;2023-03-04T11:01:15;12.20;76.10
22787;DHT22;63134;52.020;4.714;2023-03-04T11:04:01;12.40;76.00
22787;DHT22;63134;52.020;4.714;2023-03-04T11:06:47;12.60;75.10
22787;DHT22;63134;52.020;4.714;2023-03-04T11:09:39;12.60;74.10
22787;DHT22;63134;52.020;4.714;2023-03-04T11:12:32;12.70;74.40
22787;DHT22;63134;52.020;4.714;2023-03-04T11:15:21;12.70;72.80
22787;DHT22;63134;52.020;4.714;2023-03-04T11:18:12;12.50;71.10
22787;DHT22;63134;52.020;4.714;2023-03-04T11:20:59;12.10;70.80
22787;DHT22;63134;52.020;4.714;2023-03-04T11:23:58;11.70;72.50
22787;DHT22;63134;52.020;4.714;2023-03-04T11:26:50;11.50;74.30
22787;DHT22;63134;52.020;4.714;2023-03-04T11:29:44;11.50;75.80
22787;DHT22;63134;52.020;4.714;2023-03-04T11:32:36;11.70;76.60
22787;DHT22;63134;52.020;4.714;2023-03-04T11:35:30;11.90;77.40
22787;DHT22;63134;52.020;4.714;2023-03-04T11:38:20;12.20;77.50
22787;DHT22;63134;52.020;4.714;2023-03-04T11:41:13;12.50;76.80
22787;DHT22;63134;52.020;4.714;2023-03-04T11:44:01;12.80;75.60
22787;DHT22;63134;52.020;4.714;2023-03-04T11:47:14;12.90;74.70
22787;DHT22;63134;52.020;4.714;2023-03-04T11:53:39;13.20;73.20
22787;DHT22;63134;52.020;4.714;2023-03-04T11:56:36;13.00;72.20
22787;DHT22;63134;52.020;4.714;2023-03-04T12:02:20;12.40;73.50
22787;DHT22;63134;52.020;4.714;2023-03-04T12:11:41;12.40;76.40
22787;DHT22;63134;52.020;4.714;2023-03-04T12:18:26;12.40;73.80
22787;DHT22;63134;52.020;4.714;2023-03-04T12:24:46;14.20;74.30
22787;DHT22;63134;52.020;4.714;2023-03-04T12:28:02;14.70;67.20
22787;DHT22;63134;52.020;4.714;2023-03-04T12:31:12;14.30;63.70
22787;DHT22;63134;52.020;4.714;2023-03-04T12:37:14;13.60;64.80
22787;DHT22;63134;52.020;4.714;2023-03-04T12:40:25;13.30;65.80
22787;DHT22;63134;52.020;4.714;2023-03-04T12:46:40;12.80;68.40
22787;DHT22;63134;52.020;4.714;2023-03-04T12:52:43;13.20;69.60
22787;DHT22;63134;52.020;4.714;2023-03-04T12:55:38;13.40;66.60
22787;DHT22;63134;52.020;4.714;2023-03-04T12:58:29;13.00;65.50
22787;DHT22;63134;52.020;4.714;2023-03-04T13:01:28;12.50;66.40
22787;DHT22;63134;52.020;4.714;2023-03-04T13:10:26;12.50;70.40
22787;DHT22;63134;52.020;4.714;2023-03-04T13:16:31;12.30;65.30
22787;DHT22;63134;52.020;4.714;2023-03-04T13:22:50;12.00;64.70
22787;DHT22;63134;52.020;4.714;2023-03-04T13:25:46;12.00;65.30
22787;DHT22;63134;52.020;4.714;2023-03-04T13:28:36;11.90;64.40
22787;DHT22;63134;52.020;4.714;2023-03-04T13:31:25;12.10;65.50
22787;DHT22;63134;52.020;4.714;2023-03-04T13:34:42;12.30;64.20
22787;DHT22;63134;52.020;4.714;2023-03-04T13:37:33;12.50;63.30
22787;DHT22;63134;52.020;4.714;2023-03-04T13:46:40;12.30;62.50
22787;DHT22;63134;52.020;4.714;2023-03-04T13:49:26;12.20;62.70
22787;DHT22;63134;52.020;4.714;2023-03-04T13:52:37;12.10;62.70
22787;DHT22;63134;52.020;4.714;2023-03-04T13:55:39;11.90;62.90
22787;DHT22;63134;52.020;4.714;2023-03-04T13:58:27;11.70;63.70
22787;DHT22;63134;52.020;4.714;2023-03-04T14:01:25;11.70;64.20
22787;DHT22;63134;52.020;4.714;2023-03-04T14:04:32;12.30;65.10
22787;DHT22;63134;52.020;4.714;2023-03-04T14:07:24;13.30;63.00
22787;DHT22;63134;52.020;4.714;2023-03-04T14:12:57;15.30;57.00
22787;DHT22;63134;52.020;4.714;2023-03-04T14:15:53;15.90;55.50
22787;DHT22;63134;52.020;4.714;2023-03-04T14:18:39;15.90;53.80
22787;DHT22;63134;52.020;4.714;2023-03-04T14:21:28;15.30;52.60
22787;DHT22;63134;52.020;4.714;2023-03-04T14:24:16;14.80;53.70
22787;DHT22;63134;52.020;4.714;2023-03-04T14:27:10;14.30;54.60
22787;DHT22;63134;52.020;4.714;2023-03-04T14:29:57;13.80;56.40
22787;DHT22;63134;52.020;4.714;2023-03-04T14:32:53;13.40;57.30
22787;DHT22;63134;52.020;4.714;2023-03-04T14:35:49;13.00;59.20
22787;DHT22;63134;52.020;4.714;2023-03-04T14:38:40;12.70;60.90
22787;DHT22;63134;52.020;4.714;2023-03-04T14:41:33;12.70;62.20
22787;DHT22;63134;52.020;4.714;2023-03-04T14:44:47;12.80;62.60
22787;DHT22;63134;52.020;4.714;2023-03-04T14:47:37;12.70;62.60
22787;DHT22;63134;52.020;4.714;2023-03-04T14:50:24;13.40;65.50
22787;DHT22;63134;52.020;4.714;2023-03-04T14:56:04;13.90;59.20
22787;DHT22;63134;52.020;4.714;2023-03-04T14:58:53;13.60;59.30
22787;DHT22;63134;52.020;4.714;2023-03-04T15:01:39;13.20;59.90
22787;DHT22;63134;52.020;4.714;2023-03-04T15:04:24;12.70;60.90
22787;DHT22;63134;52.020;4.714;2023-03-04T15:07:20;12.30;62.30
22787;DHT22;63134;52.020;4.714;2023-03-04T15:10:11;11.70;64.00
22787;DHT22;63134;52.020;4.714;2023-03-04T15:12:59;11.50;65.30
22787;DHT22;63134;52.020;4.714;2023-03-04T15:15:59;11.30;66.40
22787;DHT22;63134;52.020;4.714;2023-03-04T15:21:45;11.10;67.10
22787;DHT22;63134;52.020;4.714;2023-03-04T15:24:31;11.00;67.60
22787;DHT22;63134;52.020;4.714;2023-03-04T15:27:17;11.00;67.90
22787;DHT22;63134;52.020;4.714;2023-03-04T15:30:06;10.80;68.20
22787;DHT22;63134;52.020;4.714;2023-03-04T15:32:54;10.70;68.40
22787;DHT22;63134;52.020;4.714;2023-03-04T15:35:45;10.60;68.40
22787;DHT22;63134;52.020;4.714;2023-03-04T15:38:32;10.50;68.80
22787;DHT22;63134;52.020;4.714;2023-03-04T15:41:25;10.30;68.80
22787;DHT22;63134;52.020;4.714;2023-03-04T15:44:11;10.20;69.20
22787;DHT22;63134;52.020;4.714;2023-03-04T15:47:00;10.20;69.60
22787;DHT22;63134;52.020;4.714;2023-03-04T15:49:46;10.10;69.90
22787;DHT22;63134;52.020;4.714;2023-03-04T15:52:32;10.10;70.10
22787;DHT22;63134;52.020;4.714;2023-03-04T15:55:19;10.10;69.80
22787;DHT22;63134;52.020;4.714;2023-03-04T15:58:09;10.10;70.00
22787;DHT22;63134;52.020;4.714;2023-03-04T16:00:55;10.00;69.50
22787;DHT22;63134;52.020;4.714;2023-03-04T16:03:40;10.00;68.90
22787;DHT22;63134;52.020;4.714;2023-03-04T16:06:28;9.90;69.30
22787;DHT22;63134;52.020;4.714;2023-03-04T16:09:16;9.80;70.00
22787;DHT22;63134;52.020;4.714;2023-03-04T16:12:10;9.70;70.60
22787;DHT22;63134;52.020;4.714;2023-03-04T16:14:55;9.80;71.00
22787;DHT22;63134;52.020;4.714;2023-03-04T16:17:41;9.80;70.70
22787;DHT22;63134;52.020;4.714;2023-03-04T16:20:28;9.70;70.60
22787;DHT22;63134;52.020;4.714;2023-03-04T16:23:19;9.70;70.40
22787;DHT22;63134;52.020;4.714;2023-03-04T16:26:13;9.70;70.60
22787;DHT22;63134;52.020;4.714;2023-03-04T16:28:59;9.70;70.60
22787;DHT22;63134;52.020;4.714;2023-03-04T16:31:44;9.70;70.50
22787;DHT22;63134;52.020;4.714;2023-03-04T16:34:30;9.70;69.90
22787;DHT22;63134;52.020;4.714;2023-03-04T16:37:18;9.60;69.70
22787;DHT22;63134;52.020;4.714;2023-03-04T16:40:15;9.50;69.70
22787;DHT22;63134;52.020;4.714;2023-03-04T16:43:00;9.40;69.80
22787;DHT22;63134;52.020;4.714;2023-03-04T16:45:47;9.40;70.70
22787;DHT22;63134;52.020;4.714;2023-03-04T16:48:32;9.30;70.30
22787;DHT22;63134;52.020;4.714;2023-03-04T16:51:20;9.30;70.60
22787;DHT22;63134;52.020;4.714;2023-03-04T16:54:13;9.20;70.80
22787;DHT22;63134;52.020;4.714;2023-03-04T16:56:59;9.20;71.10
22787;DHT22;63134;52.020;4.714;2023-03-04T16:59:45;9.20;71.00
22787;DHT22;63134;52.020;4.714;2023-03-04T17:02:31;9.30;71.30
22787;DHT22;63134;52.020;4.714;2023-03-04T17:05:18;9.20;71.80
22787;DHT22;63134;52.020;4.714;2023-03-04T17:08:04;9.20;72.10
22787;DHT22;63134;52.020;4.714;2023-03-04T17:10:49;9.30;72.10
22787;DHT22;63134;52.020;4.714;2023-03-04T17:13:34;9.20;73.10
22787;DHT22;63134;52.020;4.714;2023-03-04T17:16:20;9.10;73.80
22787;DHT22;63134;52.020;4.714;2023-03-04T17:19:08;9.00;74.00
22787;DHT22;63134;52.020;4.714;2023-03-04T17:21:58;9.00;74.70
22787;DHT22;63134;52.020;4.714;2023-03-04T17:24:44;8.80;75.10
22787;DHT22;63134;52.020;4.714;2023-03-04T17:27:30;8.80;75.80
22787;DHT22;63134;52.020;4.714;2023-03-04T17:30:16;8.70;76.00
22787;DHT22;63134;52.020;4.714;2023-03-04T17:33:01;8.70;76.30
22787;DHT22;63134;52.020;4.714;2023-03-04T17:35:50;8.70;76.30
22787;DHT22;63134;52.020;4.714;2023-03-04T17:38:42;8.60;76.50
22787;DHT22;63134;52.020;4.714;2023-03-04T17:41:28;8.70;76.60
22787;DHT22;63134;52.020;4.714;2023-03-04T17:44:14;8.70;76.40
22787;DHT22;63134;52.020;4.714;2023-03-04T17:47:01;8.70;76.20
22787;DHT22;63134;52.020;4.714;2023-03-04T17:49:49;8.60;76.20
22787;DHT22;63134;52.020;4.714;2023-03-04T17:52:35;8.60;76.40
22787;DHT22;63134;52.020;4.714;2023-03-04T17:55:21;8.60;76.50
22787;DHT22;63134;52.020;4.714;2023-03-04T17:58:07;8.60;76.50
22787;DHT22;63134;52.020;4.714;2023-03-04T18:01:17;8.60;76.50
22787;DHT22;63134;52.020;4.714;2023-03-04T18:04:03;8.60;76.50
22787;DHT22;63134;52.020;4.714;2023-03-04T18:06:53;8.50;76.50
22787;DHT22;63134;52.020;4.714;2023-03-04T18:09:40;8.50;76.70
22787;DHT22;63134;52.020;4.714;2023-03-04T18:12:27;8.50;76.60
22787;DHT22;63134;52.020;4.714;2023-03-04T18:15:12;8.40;76.30
22787;DHT22;63134;52.020;4.714;2023-03-04T18:18:00;8.40;75.90
22787;DHT22;63134;52.020;4.714;2023-03-04T18:20:46;8.40;75.40
22787;DHT22;63134;52.020;4.714;2023-03-04T18:23:32;8.30;74.60
22787;DHT22;63134;52.020;4.714;2023-03-04T18:26:18;8.20;72.40
22787;DHT22;63134;52.020;4.714;2023-03-04T18:29:06;8.10;71.90
22787;DHT22;63134;52.020;4.714;2023-03-04T18:32:18;8.10;70.70
22787;DHT22;63134;52.020;4.714;2023-03-04T18:35:04;8.10;71.00
22787;DHT22;63134;52.020;4.714;2023-03-04T18:37:49;8.10;70.70
22787;DHT22;63134;52.020;4.714;2023-03-04T18:40:38;8.10;70.60
22787;DHT22;63134;52.020;4.714;2023-03-04T18:43:24;8.10;70.50
22787;DHT22;63134;52.020;4.714;2023-03-04T18:46:33;8.20;70.20
22787;DHT22;63134;52.020;4.714;2023-03-04T18:49:16;8.20;70.20
22787;DHT22;63134;52.020;4.714;2023-03-04T18:52:09;8.20;69.80
22787;DHT22;63134;52.020;4.714;2023-03-04T18:54:57;8.10;69.70
22787;DHT22;63134;52.020;4.714;2023-03-04T18:57:46;8.10;69.80
22787;DHT22;63134;52.020;4.714;2023-03-04T19:00:36;8.20;70.10
22787;DHT22;63134;52.020;4.714;2023-03-04T19:03:22;8.20;70.00
22787;DHT22;63134;52.020;4.714;2023-03-04T19:06:08;8.20;70.00
22787;DHT22;63134;52.020;4.714;2023-03-04T19:08:54;8.20;70.20
22787;DHT22;63134;52.020;4.714;2023-03-04T19:11:39;8.20;70.20